KFWA/FWA METAR and TAF weather

Enter ICAO airport designator
Station Type Date Time Source
KFWA METAR 2021/09/27 07:54 UTC NOAA

KFWA 270754Z 22012KT 10SM BKN140 17/10 A2992 RMK AO2 SLP128 T01670100 $


Station Type Date Time Source
KFWA Decoded METAR 2021/09/27 07:54 UTC NOAA

FORT WAYNE INTERNATIONAL, IN, United States (KFWA) 41-00N 85-12W 248M
Sep 27, 2021 - 03:54 AM EDT / 2021.09.27 0754 UTC
Wind: from the SW (220 degrees) at 14 MPH (12 KT):0
Visibility: 10 mile(s):0
Sky conditions: mostly cloudy
Temperature: 62.1 F (16.7 C)
Dew Point: 50.0 F (10.0 C)
Relative Humidity: 64%
Pressure (altimeter): 29.92 in. Hg (1013 hPa)
ob: KFWA 270754Z 22012KT 10SM BKN140 17/10 A2992 RMK AO2 SLP128 T01670100
cycle: 8

Station Type Date Time Source
KFWA TAF 2021/09/27 06:22 UTC NOAA

TAF KFWA 270520Z 2706/2806 21012KT P6SM SCT200 WS020/25050KT
FM271500 24014G24KT P6SM SKC
FM280000 25007KT P6SM SKC

Example: see airport list